createdAt,value
2017-11-08T00:01:05.041Z,88.83
2017-11-08T00:03:32.597Z,102.83
2017-11-08T00:06:00.083Z,92.97
2017-11-08T00:08:27.618Z,83.27
2017-11-08T00:10:55.119Z,82.20
2017-11-08T00:13:22.609Z,87.60
2017-11-08T00:15:51.935Z,118.83
2017-11-08T00:18:19.489Z,99.97
2017-11-08T00:20:46.982Z,96.60
2017-11-08T00:23:14.472Z,99.80
2017-11-08T00:25:42.001Z,106.40
2017-11-08T00:28:09.520Z,114.60
2017-11-08T00:30:37.017Z,119.40
2017-11-08T00:33:04.537Z,104.33
2017-11-08T00:35:32.017Z,99.60
2017-11-08T00:37:59.577Z,94.53
2017-11-08T00:40:27.119Z,113.80
2017-11-08T00:42:54.603Z,95.03
2017-11-08T00:45:22.097Z,98.60
2017-11-08T00:47:49.630Z,97.07
2017-11-08T00:50:17.124Z,119.67
2017-11-08T00:52:44.613Z,95.50
2017-11-08T00:55:12.153Z,107.33
2017-11-08T00:57:45.272Z,104.63
2017-11-08T01:00:15.304Z,99.00
2017-11-08T01:02:42.795Z,101.23
2017-11-08T01:05:10.285Z,84.10
2017-11-08T01:07:37.943Z,94.67
2017-11-08T01:10:05.435Z,91.30
2017-11-08T01:12:32.925Z,94.90
2017-11-08T01:15:00.464Z,114.00
2017-11-08T01:17:27.960Z,130.60
2017-11-08T01:19:55.452Z,137.33
2017-11-08T01:22:22.968Z,104.73
2017-11-08T01:24:50.461Z,112.03
2017-11-08T01:27:18.009Z,109.33
2017-11-08T01:29:45.507Z,124.53
2017-11-08T01:32:13.003Z,109.83
2017-11-08T01:34:40.531Z,92.27
2017-11-08T01:37:13.748Z,103.43
2017-11-08T01:39:41.263Z,109.80
2017-11-08T01:42:10.582Z,112.63
2017-11-08T01:44:43.848Z,107.60
2017-11-08T01:47:11.390Z,116.37
2017-11-08T01:49:38.888Z,116.33
2017-11-08T01:52:23.048Z,115.20
2017-11-08T01:54:50.532Z,99.27
2017-11-08T01:57:18.023Z,117.17
2017-11-08T01:59:45.547Z,110.90
2017-11-08T02:02:13.039Z,130.60
2017-11-08T02:04:40.583Z,129.60
2017-11-08T02:07:08.143Z,114.77
2017-11-08T02:09:35.637Z,109.97
2017-11-08T02:12:03.262Z,117.00
2017-11-08T02:14:30.753Z,120.30
2017-11-08T02:16:58.240Z,103.27
2017-11-08T02:19:25.785Z,112.10
2017-11-08T02:21:53.275Z,127.60
2017-11-08T02:24:20.767Z,115.50
2017-11-08T02:29:44.516Z,143.27
2017-11-08T02:32:14.990Z,117.27
2017-11-08T02:34:42.488Z,122.90
2017-11-08T02:37:09.992Z,124.93
2017-11-08T02:39:37.500Z,132.40
2017-11-08T02:42:05.727Z,126.57
2017-11-08T02:44:33.219Z,119.17
2017-11-08T02:47:00.856Z,136.63
2017-11-08T02:49:28.343Z,121.97
2017-11-08T02:51:55.856Z,123.70
2017-11-08T02:54:24.164Z,131.43
2017-11-08T02:56:51.683Z,133.03
2017-11-08T02:59:19.248Z,136.17
2017-11-08T03:01:46.800Z,139.60
2017-11-08T03:04:14.291Z,131.07
2017-11-08T03:06:41.788Z,124.57
2017-11-08T03:09:09.326Z,129.17
2017-11-08T03:11:36.817Z,130.70
2017-11-08T03:14:04.320Z,121.03
2017-11-08T03:16:31.836Z,150.53
2017-11-08T03:18:59.328Z,120.60
2017-11-08T03:21:26.817Z,132.70
2017-11-08T03:23:54.411Z,138.20
2017-11-08T03:26:21.907Z,138.20
2017-11-08T03:28:49.437Z,146.10
2017-11-08T03:31:16.929Z,148.30
2017-11-08T03:33:44.492Z,149.60
2017-11-08T03:36:12.149Z,150.53
2017-11-08T03:38:39.643Z,137.03
2017-11-08T03:41:07.166Z,144.07
2017-11-08T03:43:34.690Z,146.40
2017-11-08T03:46:02.261Z,129.50
2017-11-08T03:48:29.772Z,155.70
2017-11-08T03:50:57.264Z,141.80
2017-11-08T03:53:24.843Z,131.23
2017-11-08T03:55:52.340Z,117.07
2017-11-08T03:58:19.831Z,153.07
2017-11-08T04:00:47.355Z,111.63
2017-11-08T04:03:14.892Z,103.43
2017-11-08T04:05:42.391Z,118.20
2017-11-08T04:08:09.889Z,110.23
2017-11-08T04:10:37.438Z,108.43
2017-11-08T04:13:04.941Z,112.50
2017-11-08T04:15:32.431Z,107.77
2017-11-08T04:18:00.008Z,118.33
2017-11-08T04:20:27.496Z,115.97
2017-11-08T04:22:54.985Z,108.10
2017-11-08T04:25:22.561Z,96.50
2017-11-08T04:27:50.053Z,109.77
2017-11-08T04:30:17.549Z,103.30
2017-11-08T04:32:45.179Z,102.80
2017-11-08T04:35:12.664Z,125.87
2017-11-08T04:37:40.191Z,115.40
2017-11-08T04:40:07.855Z,92.10
2017-11-08T04:42:40.217Z,103.70
2017-11-08T04:45:07.740Z,106.53
2017-11-08T04:47:35.227Z,99.90
2017-11-08T04:50:02.804Z,104.50
2017-11-08T04:52:30.356Z,106.50
2017-11-08T04:54:57.852Z,95.10
2017-11-08T04:57:25.339Z,88.60
2017-11-08T04:59:52.860Z,96.03
2017-11-08T05:02:20.355Z,96.23
2017-11-08T05:04:47.851Z,103.07
2017-11-08T05:07:15.408Z,80.57
2017-11-08T05:09:42.901Z,106.27
2017-11-08T05:12:10.391Z,123.03
2017-11-08T05:14:37.930Z,110.23
2017-11-08T05:17:05.439Z,116.40
2017-11-08T05:19:32.932Z,103.33
2017-11-08T05:22:00.456Z,111.53
2017-11-08T05:24:28.015Z,100.70
2017-11-08T05:26:55.677Z,99.60
2017-11-08T05:29:23.176Z,115.03
2017-11-08T05:31:51.193Z,110.50
2017-11-08T05:34:18.872Z,128.63
2017-11-08T05:36:46.435Z,100.67
2017-11-08T05:39:13.984Z,96.80
2017-11-08T05:41:41.512Z,109.93
2017-11-08T05:44:09.108Z,168.67
2017-11-08T05:46:36.621Z,100.70
2017-11-08T05:49:04.268Z,107.97
2017-11-08T05:51:31.763Z,121.47
2017-11-08T05:53:59.251Z,139.43
2017-11-08T05:56:26.911Z,108.73
2017-11-08T05:58:54.411Z,125.77
2017-11-08T06:01:21.906Z,123.03
2017-11-08T06:03:49.479Z,127.70
2017-11-08T06:06:16.970Z,111.13
2017-11-08T06:08:44.467Z,112.07
2017-11-08T06:11:12.073Z,122.67
2017-11-08T06:13:39.608Z,139.17
2017-11-08T06:16:07.184Z,117.33
2017-11-08T06:18:34.832Z,110.93
2017-11-08T06:21:02.396Z,137.70
2017-11-08T06:23:29.891Z,135.43
2017-11-08T06:25:57.417Z,124.60
2017-11-08T06:28:24.912Z,137.47
2017-11-08T06:30:52.408Z,118.57
2017-11-08T06:33:20.011Z,121.60
2017-11-08T06:35:47.499Z,108.13
2017-11-08T06:38:15.023Z,117.63
2017-11-08T06:40:42.512Z,122.87
2017-11-08T06:43:10.013Z,125.83
2017-11-08T06:45:37.600Z,130.97
2017-11-08T06:48:05.092Z,120.20
2017-11-08T06:50:33.420Z,113.70
2017-11-08T06:53:01.797Z,121.60
2017-11-08T06:55:30.063Z,119.10
2017-11-08T06:57:57.625Z,119.63
2017-11-08T07:00:25.121Z,121.93
2017-11-08T07:02:52.607Z,112.80
2017-11-08T07:05:20.300Z,103.27
2017-11-08T07:07:47.792Z,111.93
2017-11-08T07:10:15.293Z,118.13
2017-11-08T07:12:42.836Z,102.00
2017-11-08T07:15:10.333Z,122.67
2017-11-08T07:17:37.828Z,118.83
2017-11-08T07:20:05.335Z,104.43
2017-11-08T07:22:32.920Z,110.97
2017-11-08T07:25:00.460Z,105.70
2017-11-08T07:27:28.032Z,90.97
2017-11-08T07:29:55.592Z,90.50
2017-11-08T07:32:23.272Z,87.23
2017-11-08T07:34:50.816Z,92.10
2017-11-08T07:37:18.314Z,84.10
2017-11-08T07:39:45.832Z,88.20
2017-11-08T07:42:13.354Z,92.13
2017-11-08T07:44:40.943Z,78.03
2017-11-08T07:47:08.431Z,93.50
2017-11-08T07:49:36.071Z,69.60
2017-11-08T07:52:10.286Z,77.50
2017-11-08T07:54:37.835Z,71.73
2017-11-08T07:57:05.328Z,70.67
2017-11-08T07:59:38.684Z,70.83
2017-11-08T08:02:06.260Z,65.03
2017-11-08T08:04:33.813Z,59.53
2017-11-08T08:07:01.328Z,72.13
2017-11-08T08:09:45.515Z,61.27
2017-11-08T08:12:13.032Z,60.40
2017-11-08T08:14:40.556Z,87.63
2017-11-08T08:17:08.044Z,66.40
2017-11-08T08:19:36.675Z,61.37
2017-11-08T08:22:04.167Z,67.80
2017-11-08T08:24:31.648Z,66.70
2017-11-08T08:27:04.764Z,56.87
2017-11-08T08:29:32.319Z,63.73
2017-11-08T08:31:59.808Z,52.27
2017-11-08T08:34:27.338Z,61.60
2017-11-08T08:36:54.833Z,66.33
2017-11-08T08:39:22.334Z,68.83
2017-11-08T08:41:49.864Z,60.13
2017-11-08T08:44:17.407Z,66.80
2017-11-08T08:46:44.905Z,59.90
2017-11-08T08:49:12.643Z,59.60
2017-11-08T08:51:40.132Z,56.60
2017-11-08T08:54:07.633Z,54.07
2017-11-08T08:56:35.180Z,56.87
2017-11-08T08:59:02.681Z,64.03
2017-11-08T09:01:30.172Z,60.33
2017-11-08T09:03:57.732Z,57.80
2017-11-08T09:06:25.328Z,65.77
2017-11-08T09:08:52.820Z,52.63
2017-11-08T09:11:20.343Z,59.40
2017-11-08T09:13:47.895Z,64.60
2017-11-08T09:16:15.396Z,69.20
2017-11-08T09:18:42.911Z,57.53
2017-11-08T09:21:10.405Z,56.70
2017-11-08T09:23:38.847Z,64.50
2017-11-08T09:26:06.336Z,59.03
2017-11-08T09:28:33.825Z,65.27
2017-11-08T09:31:01.427Z,58.60
2017-11-08T09:33:29.079Z,76.27
2017-11-08T09:35:56.568Z,99.27
2017-11-08T09:38:24.105Z,54.47
2017-11-08T09:40:51.609Z,62.90
2017-11-08T09:43:21.919Z,58.53
2017-11-08T09:45:49.435Z,63.70
2017-11-08T09:48:16.947Z,62.47
2017-11-08T09:50:44.484Z,46.10
2017-11-08T09:53:12.023Z,58.93
2017-11-08T09:55:39.529Z,63.10
2017-11-08T09:58:08.933Z,67.37
2017-11-08T10:00:36.469Z,60.30
2017-11-08T10:03:03.958Z,69.50
2017-11-08T10:05:31.452Z,71.87
2017-11-08T10:07:58.984Z,63.03
2017-11-08T10:10:30.305Z,57.67
2017-11-08T10:13:03.426Z,61.40
2017-11-08T10:15:30.917Z,59.33
2017-11-08T10:17:58.415Z,58.97
2017-11-08T10:20:25.996Z,61.90
2017-11-08T10:22:53.481Z,74.33
2017-11-08T10:25:20.968Z,63.17
2017-11-08T10:27:48.503Z,66.27
2017-11-08T10:30:16.083Z,57.00
2017-11-08T10:32:43.572Z,62.40
2017-11-08T10:35:11.075Z,56.17
2017-11-08T10:37:38.635Z,61.93
2017-11-08T10:40:06.124Z,56.67
2017-11-08T10:42:33.586Z,69.83
2017-11-08T10:45:01.121Z,59.17
2017-11-08T10:47:28.616Z,64.57
2017-11-08T10:49:56.117Z,42.23
2017-11-08T10:52:23.644Z,56.43
2017-11-08T10:54:51.134Z,60.93
2017-11-08T10:57:18.675Z,51.67
2017-11-08T10:59:51.224Z,58.10
2017-11-08T11:02:19.423Z,60.73
2017-11-08T11:04:47.710Z,55.33
2017-11-08T11:07:15.250Z,61.73
2017-11-08T11:09:42.741Z,47.27
2017-11-08T11:12:10.240Z,61.13
2017-11-08T11:14:37.765Z,55.40
2017-11-08T11:17:05.257Z,69.47
2017-11-08T11:19:32.852Z,60.67
2017-11-08T11:22:02.143Z,60.57
2017-11-08T11:24:33.532Z,74.20
2017-11-08T11:27:07.413Z,64.20
2017-11-08T11:29:34.903Z,77.47
2017-11-08T11:32:02.528Z,62.03
2017-11-08T11:34:30.028Z,65.87
2017-11-08T11:36:57.523Z,59.43
2017-11-08T11:39:25.112Z,46.50
2017-11-08T11:41:52.601Z,52.90
2017-11-08T11:44:20.171Z,67.40
2017-11-08T11:46:47.828Z,58.00
2017-11-08T11:49:15.318Z,63.50
2017-11-08T11:51:42.910Z,61.20
2017-11-08T11:54:10.469Z,58.40
2017-11-08T12:12:29.585Z,63.37
2017-11-08T12:14:57.082Z,69.00
2017-11-08T12:17:24.578Z,58.27
2017-11-08T12:19:52.319Z,70.90
2017-11-08T12:22:19.816Z,66.57
2017-11-08T12:24:47.316Z,73.40
2017-11-08T12:27:14.836Z,74.00
2017-11-08T12:29:42.325Z,68.00
2017-11-08T12:32:09.904Z,59.23
2017-11-08T12:34:39.416Z,65.80
2017-11-08T12:37:06.973Z,71.10
2017-11-08T12:39:34.466Z,76.13
2017-11-08T12:42:03.920Z,75.80
2017-11-08T12:47:34.789Z,68.63
2017-11-08T12:50:02.292Z,62.80
2017-11-08T12:52:29.789Z,70.93
2017-11-08T12:54:57.340Z,71.17
2017-11-08T12:57:24.832Z,56.07
2017-11-08T12:59:52.323Z,66.00
2017-11-08T13:02:20.046Z,55.07
2017-11-08T13:04:47.543Z,68.10
2017-11-08T13:07:15.028Z,75.37
2017-11-08T13:09:42.563Z,67.37
2017-11-08T13:12:10.061Z,78.80
2017-11-08T13:14:37.560Z,71.07
2017-11-08T13:17:05.081Z,69.37
2017-11-08T13:19:32.560Z,72.70
2017-11-08T13:22:00.116Z,70.53
2017-11-08T13:24:27.649Z,64.93
2017-11-08T13:26:55.136Z,62.00
2017-11-08T13:29:22.629Z,55.93
2017-11-08T13:31:50.164Z,49.93
2017-11-08T13:34:17.653Z,57.03
2017-11-08T13:36:45.368Z,60.83
2017-11-08T13:39:12.857Z,68.60
2017-11-08T13:41:40.386Z,69.40
2017-11-08T13:44:07.900Z,70.83
2017-11-08T13:46:35.504Z,71.80
2017-11-08T13:49:03.038Z,65.27
2017-11-08T13:51:30.534Z,65.17
2017-11-08T13:53:58.079Z,72.93
2017-11-08T13:56:25.630Z,76.77
2017-11-08T13:58:53.127Z,77.37
2017-11-08T14:01:20.633Z,75.13
2017-11-08T14:03:48.181Z,80.63
2017-11-08T14:06:15.677Z,72.20
2017-11-08T14:08:43.168Z,59.17
2017-11-08T14:11:10.891Z,75.60
2017-11-08T14:13:38.471Z,76.63
2017-11-08T14:16:05.966Z,68.23
2017-11-08T14:18:33.501Z,80.50
2017-11-08T14:21:00.992Z,69.77
2017-11-08T14:23:28.481Z,67.73
2017-11-08T14:25:55.996Z,74.53
2017-11-08T14:28:23.487Z,74.73
2017-11-08T14:30:50.983Z,76.23
2017-11-08T14:33:18.626Z,77.60
2017-11-08T14:35:46.116Z,81.73
2017-11-08T14:38:13.608Z,79.53
2017-11-08T14:40:41.132Z,65.63
2017-11-08T14:43:08.621Z,76.60
2017-11-08T14:45:36.121Z,72.93
2017-11-08T14:48:03.661Z,75.00
2017-11-08T14:50:31.149Z,81.20
2017-11-08T14:53:04.220Z,68.90
2017-11-08T14:55:31.719Z,78.77
2017-11-08T14:57:59.242Z,76.53
2017-11-08T15:00:26.777Z,70.90
2017-11-08T15:02:54.348Z,83.77
2017-11-08T15:05:21.914Z,86.63
2017-11-08T15:07:49.472Z,86.57
2017-11-08T15:10:16.972Z,76.37
2017-11-08T15:12:45.265Z,68.20
2017-11-08T15:15:15.577Z,83.60
2017-11-08T15:17:44.931Z,89.27
2017-11-08T15:20:18.154Z,91.30
2017-11-08T15:22:45.645Z,78.07
2017-11-08T15:25:13.147Z,80.73
2017-11-08T15:27:40.801Z,79.97
2017-11-08T15:30:08.298Z,87.00
2017-11-08T15:32:36.704Z,76.97
2017-11-08T15:35:04.347Z,87.73
2017-11-08T15:37:31.836Z,86.40
2017-11-08T15:39:59.325Z,89.17
2017-11-08T15:42:26.852Z,80.63
2017-11-08T15:44:54.341Z,84.10
2017-11-08T15:47:21.834Z,85.63
2017-11-08T15:49:49.377Z,79.13
2017-11-08T15:52:16.870Z,85.43
2017-11-08T15:54:44.363Z,78.83
2017-11-08T15:57:11.888Z,71.37
2017-11-08T15:59:39.378Z,79.00
2017-11-08T16:02:06.880Z,84.90
2017-11-08T16:04:34.411Z,80.17
2017-11-08T16:07:01.956Z,95.90
2017-11-08T16:09:29.521Z,93.97
2017-11-08T16:11:57.056Z,75.80
2017-11-08T16:14:24.546Z,83.47
2017-11-08T16:16:52.045Z,81.83
2017-11-08T16:19:19.585Z,80.53
2017-11-08T16:21:47.127Z,86.10
2017-11-08T16:24:16.425Z,75.63
2017-11-08T16:26:43.954Z,77.13
2017-11-08T16:29:11.547Z,85.70
2017-11-08T16:31:39.074Z,93.60
2017-11-08T16:34:06.565Z,95.10
2017-11-08T16:36:34.052Z,77.53
2017-11-08T16:39:01.659Z,84.83
2017-11-08T16:41:29.148Z,87.13
2017-11-08T16:43:56.648Z,79.90
2017-11-08T16:46:24.285Z,77.93
2017-11-08T16:48:51.798Z,81.07
2017-11-08T16:51:19.284Z,74.80
2017-11-08T16:53:46.815Z,77.13
2017-11-08T16:56:14.310Z,80.60
2017-11-08T16:58:41.846Z,76.13
2017-11-08T17:01:09.333Z,82.50
2017-11-08T17:03:36.830Z,80.40
2017-11-08T17:06:04.358Z,87.13
2017-11-08T17:08:31.849Z,84.33
2017-11-08T17:10:59.341Z,78.50
2017-11-08T17:13:26.861Z,76.47
2017-11-08T17:15:54.356Z,80.20
2017-11-08T17:18:21.844Z,84.53
2017-11-08T17:20:49.366Z,85.60
2017-11-08T17:23:16.913Z,93.50
2017-11-08T17:25:44.404Z,93.93
2017-11-08T17:28:11.963Z,91.93
2017-11-08T17:30:39.481Z,86.40
2017-11-08T17:33:06.973Z,86.93
2017-11-08T17:35:34.493Z,83.27
2017-11-08T17:38:01.992Z,80.80
2017-11-08T17:40:29.484Z,81.97
2017-11-08T17:42:57.073Z,88.17
2017-11-08T17:45:24.646Z,95.20
2017-11-08T17:47:52.136Z,86.90
2017-11-08T17:50:19.753Z,90.80
2017-11-08T17:52:47.255Z,83.93
2017-11-08T17:55:14.744Z,91.07
2017-11-08T17:57:42.273Z,86.27
2017-11-08T18:00:09.760Z,90.03
2017-11-08T18:02:37.349Z,86.70
2017-11-08T18:05:04.873Z,80.17
2017-11-08T18:07:32.374Z,86.40
2017-11-08T18:09:59.868Z,71.80
2017-11-08T18:12:27.477Z,85.97
2017-11-08T18:14:54.972Z,88.10
2017-11-08T18:17:22.515Z,75.73
2017-11-08T18:19:50.007Z,78.20
2017-11-08T18:22:17.610Z,82.00
2017-11-08T18:24:45.159Z,120.77
2017-11-08T18:27:12.736Z,81.70
2017-11-08T18:29:40.224Z,80.97
2017-11-08T18:32:07.924Z,81.47
2017-11-08T18:34:35.419Z,76.00
2017-11-08T18:37:02.990Z,82.37
2017-11-08T18:39:30.500Z,86.30
2017-11-08T18:41:58.102Z,82.63
2017-11-08T18:44:25.600Z,85.03
2017-11-08T18:46:53.092Z,79.23
2017-11-08T18:49:20.627Z,74.43
2017-11-08T18:51:48.229Z,94.73
2017-11-08T18:54:15.722Z,81.70
2017-11-08T18:56:43.266Z,89.20
2017-11-08T18:59:10.766Z,76.60
2017-11-08T19:01:38.333Z,78.43
2017-11-08T19:04:05.862Z,77.47
2017-11-08T19:06:33.410Z,80.93
2017-11-08T19:09:00.941Z,80.73
2017-11-08T19:11:28.514Z,80.80
2017-11-08T19:13:56.034Z,85.70
2017-11-08T19:16:23.528Z,85.33
2017-11-08T19:18:51.076Z,87.97
2017-11-08T19:21:18.595Z,75.80
2017-11-08T19:23:46.126Z,71.50
2017-11-08T19:26:13.624Z,78.07
2017-11-08T19:28:41.124Z,105.70
2017-11-08T19:31:08.669Z,91.57
2017-11-08T19:33:36.169Z,77.63
2017-11-08T19:36:03.671Z,83.23
2017-11-08T19:38:31.198Z,84.50
2017-11-08T19:40:58.693Z,85.97
2017-11-08T19:43:26.271Z,85.13
2017-11-08T19:45:53.806Z,86.50
2017-11-08T19:48:21.378Z,77.93
2017-11-08T19:50:48.869Z,76.47
2017-11-08T19:53:16.485Z,71.67
2017-11-08T19:55:43.993Z,77.60
2017-11-08T19:58:11.518Z,87.90
2017-11-08T20:00:39.140Z,76.40
2017-11-08T20:03:06.737Z,81.47
2017-11-08T20:05:34.336Z,78.23
2017-11-08T20:08:01.909Z,66.67
2017-11-08T20:10:29.435Z,76.97
2017-11-08T20:12:56.938Z,78.50
2017-11-08T20:15:24.485Z,72.63
2017-11-08T20:17:52.104Z,73.33
2017-11-08T20:20:19.662Z,97.07
2017-11-08T20:22:47.181Z,91.60
2017-11-08T20:25:14.712Z,88.60
2017-11-08T20:27:42.201Z,72.27
2017-11-08T20:30:09.751Z,88.53
2017-11-08T20:32:37.394Z,66.70
2017-11-08T20:35:04.882Z,69.30
2017-11-08T20:37:32.394Z,101.17
2017-11-08T20:39:59.915Z,81.90
2017-11-08T20:42:27.409Z,80.77
2017-11-08T20:44:54.935Z,75.03
2017-11-08T20:47:22.473Z,76.30
2017-11-08T20:49:49.972Z,72.30
2017-11-08T20:52:17.513Z,124.40
2017-11-08T20:54:45.085Z,88.37
2017-11-08T20:57:12.577Z,71.83
2017-11-08T20:59:40.077Z,79.03
2017-11-08T21:02:07.589Z,75.70
2017-11-08T21:04:35.076Z,90.70
2017-11-08T21:07:02.602Z,103.00
2017-11-08T21:09:30.115Z,67.60
2017-11-08T21:11:57.654Z,70.20
2017-11-08T21:14:25.147Z,63.23
2017-11-08T21:16:52.655Z,99.67
2017-11-08T21:19:20.369Z,70.33
2017-11-08T21:21:47.873Z,69.83
2017-11-08T21:24:15.367Z,69.60
2017-11-08T21:26:42.945Z,69.33
2017-11-08T21:29:10.481Z,69.50
2017-11-08T21:31:38.054Z,83.57
2017-11-08T21:34:05.545Z,73.43
2017-11-08T21:36:33.167Z,90.37
2017-11-08T21:39:00.655Z,86.87
2017-11-08T21:41:28.147Z,71.23
2017-11-08T21:43:55.677Z,72.27
2017-11-08T21:46:23.205Z,75.27
2017-11-08T21:48:51.152Z,85.83
2017-11-08T21:51:18.669Z,90.43
2017-11-08T21:53:46.223Z,73.10
2017-11-08T21:56:13.724Z,76.20
2017-11-08T21:58:41.215Z,77.33
2017-11-08T22:01:08.734Z,72.20
2017-11-08T22:03:36.227Z,84.17
2017-11-08T22:06:03.783Z,72.60
2017-11-08T22:08:31.341Z,80.10
2017-11-08T22:10:58.835Z,78.70
2017-11-08T22:13:26.367Z,79.47
2017-11-08T22:15:53.853Z,78.40
2017-11-08T22:18:21.340Z,67.40
2017-11-08T22:20:49.742Z,70.70
2017-11-08T22:23:17.241Z,102.07
2017-11-08T22:25:44.778Z,116.77
2017-11-08T22:28:12.417Z,87.03
2017-11-08T22:30:39.911Z,91.60
2017-11-08T22:33:07.467Z,80.03
2017-11-08T22:35:35.084Z,85.77
2017-11-08T22:38:02.576Z,83.03
2017-11-08T22:40:30.069Z,75.43
2017-11-08T22:42:57.613Z,82.53
2017-11-08T22:45:25.105Z,104.43
2017-11-08T22:47:52.591Z,94.00
2017-11-08T22:50:20.137Z,104.77
2017-11-08T22:52:47.709Z,84.60
2017-11-08T22:55:15.270Z,82.57
2017-11-08T22:57:42.798Z,83.70
2017-11-08T23:00:10.302Z,88.57
2017-11-08T23:02:37.794Z,80.30
2017-11-08T23:05:05.416Z,79.80
2017-11-08T23:07:32.969Z,80.07
2017-11-08T23:10:00.453Z,88.73
2017-11-08T23:12:27.995Z,94.80
2017-11-08T23:14:55.533Z,85.40
2017-11-08T23:17:23.033Z,85.73
2017-11-08T23:19:50.757Z,94.53
2017-11-08T23:22:18.251Z,97.40
2017-11-08T23:24:45.746Z,99.77
2017-11-08T23:27:13.272Z,92.00
2017-11-08T23:29:40.761Z,90.77
2017-11-08T23:32:08.257Z,90.67
2017-11-08T23:34:35.804Z,90.90
2017-11-08T23:37:03.369Z,108.77
2017-11-08T23:39:30.926Z,84.87
2017-11-08T23:41:58.445Z,103.90
2017-11-08T23:44:26.045Z,104.20
2017-11-08T23:46:53.540Z,100.10
2017-11-08T23:49:21.073Z,98.50
2017-11-08T23:51:48.613Z,99.87
2017-11-08T23:54:16.176Z,85.80
2017-11-08T23:56:43.721Z,84.97
2017-11-08T23:59:16.833Z,93.77
